sensor_id;sensor_type;location;lat;lon;timestamp;temperature;humidity
47090;DHT22;32840;52.516;13.294;2023-05-20T00:00:03;14.00;92.90
47090;DHT22;32840;52.516;13.294;2023-05-20T00:02:48;14.00;93.10
47090;DHT22;32840;52.516;13.294;2023-05-20T00:05:33;14.00;93.40
47090;DHT22;32840;52.516;13.294;2023-05-20T00:08:18;13.90;93.80
47090;DHT22;32840;52.516;13.294;2023-05-20T00:11:03;13.80;94.20
47090;DHT22;32840;52.516;13.294;2023-05-20T00:13:47;13.80;94.70
47090;DHT22;32840;52.516;13.294;2023-05-20T00:16:32;13.70;94.80
47090;DHT22;32840;52.516;13.294;2023-05-20T00:19:17;13.70;95.10
47090;DHT22;32840;52.516;13.294;2023-05-20T00:22:02;13.80;95.30
47090;DHT22;32840;52.516;13.294;2023-05-20T00:24:47;13.70;95.80
47090;DHT22;32840;52.516;13.294;2023-05-20T00:27:32;13.60;96.30
47090;DHT22;32840;52.516;13.294;2023-05-20T00:30:17;13.50;96.90
47090;DHT22;32840;52.516;13.294;2023-05-20T00:33:02;13.50;97.40
47090;DHT22;32840;52.516;13.294;2023-05-20T00:35:47;13.50;97.90
47090;DHT22;32840;52.516;13.294;2023-05-20T00:38:32;13.40;98.90
47090;DHT22;32840;52.516;13.294;2023-05-20T00:41:17;13.40;99.30
47090;DHT22;32840;52.516;13.294;2023-05-20T00:44:02;13.40;99.80
47090;DHT22;32840;52.516;13.294;2023-05-20T00:46:47;13.30;99.90
47090;DHT22;32840;52.516;13.294;2023-05-20T00:49:33;13.30;99.90
47090;DHT22;32840;52.516;13.294;2023-05-20T00:52:18;13.30;99.90
47090;DHT22;32840;52.516;13.294;2023-05-20T00:55:03;13.20;99.90
47090;DHT22;32840;52.516;13.294;2023-05-20T00:57:48;13.20;99.90
47090;DHT22;32840;52.516;13.294;2023-05-20T01:00:33;13.10;99.90
47090;DHT22;32840;52.516;13.294;2023-05-20T01:03:18;13.20;99.90
47090;DHT22;32840;52.516;13.294;2023-05-20T01:06:03;13.20;99.90
47090;DHT22;32840;52.516;13.294;2023-05-20T01:08:48;13.20;99.90
47090;DHT22;32840;52.516;13.294;2023-05-20T01:11:47;13.20;99.90
47090;DHT22;32840;52.516;13.294;2023-05-20T01:14:36;13.20;99.90
47090;DHT22;32840;52.516;13.294;2023-05-20T01:17:26;13.20;99.90
47090;DHT22;32840;52.516;13.294;2023-05-20T01:20:14;13.30;99.90
47090;DHT22;32840;52.516;13.294;2023-05-20T01:22:59;13.30;99.90
47090;DHT22;32840;52.516;13.294;2023-05-20T01:25:44;13.20;99.90
47090;DHT22;32840;52.516;13.294;2023-05-20T01:28:35;13.10;99.90
47090;DHT22;32840;52.516;13.294;2023-05-20T01:31:23;13.10;99.90
47090;DHT22;32840;52.516;13.294;2023-05-20T01:34:09;13.00;99.90
47090;DHT22;32840;52.516;13.294;2023-05-20T01:36:55;13.00;99.90
47090;DHT22;32840;52.516;13.294;2023-05-20T01:39:41;13.00;99.90
47090;DHT22;32840;52.516;13.294;2023-05-20T01:42:27;13.00;99.90
47090;DHT22;32840;52.516;13.294;2023-05-20T01:45:12;13.00;99.90
47090;DHT22;32840;52.516;13.294;2023-05-20T01:47:57;12.90;99.90
47090;DHT22;32840;52.516;13.294;2023-05-20T01:50:42;12.90;99.90
47090;DHT22;32840;52.516;13.294;2023-05-20T01:53:27;12.80;99.90
47090;DHT22;32840;52.516;13.294;2023-05-20T01:56:12;12.80;99.90
47090;DHT22;32840;52.516;13.294;2023-05-20T01:58:56;12.80;99.90
47090;DHT22;32840;52.516;13.294;2023-05-20T02:01:41;12.80;99.90
47090;DHT22;32840;52.516;13.294;2023-05-20T02:04:26;12.80;99.90
47090;DHT22;32840;52.516;13.294;2023-05-20T02:07:12;12.80;99.90
47090;DHT22;32840;52.516;13.294;2023-05-20T02:09:57;12.70;99.90
47090;DHT22;32840;52.516;13.294;2023-05-20T02:12:41;12.70;99.90
47090;DHT22;32840;52.516;13.294;2023-05-20T02:15:26;12.70;99.90
47090;DHT22;32840;52.516;13.294;2023-05-20T02:18:11;12.60;99.90
47090;DHT22;32840;52.516;13.294;2023-05-20T02:21:04;12.60;99.90
47090;DHT22;32840;52.516;13.294;2023-05-20T02:23:48;12.60;99.90
47090;DHT22;32840;52.516;13.294;2023-05-20T02:26:33;12.60;99.90
47090;DHT22;32840;52.516;13.294;2023-05-20T02:29:18;12.60;99.90
47090;DHT22;32840;52.516;13.294;2023-05-20T02:32:05;12.60;99.90
47090;DHT22;32840;52.516;13.294;2023-05-20T02:34:50;12.60;99.90
47090;DHT22;32840;52.516;13.294;2023-05-20T02:37:35;12.70;99.90
47090;DHT22;32840;52.516;13.294;2023-05-20T02:40:22;12.70;99.90
47090;DHT22;32840;52.516;13.294;2023-05-20T02:43:07;12.60;99.90
47090;DHT22;32840;52.516;13.294;2023-05-20T02:45:52;12.70;99.90
47090;DHT22;32840;52.516;13.294;2023-05-20T02:48:37;12.70;99.90
47090;DHT22;32840;52.516;13.294;2023-05-20T02:51:22;12.70;99.90
47090;DHT22;32840;52.516;13.294;2023-05-20T02:54:07;12.70;99.90
47090;DHT22;32840;52.516;13.294;2023-05-20T02:56:52;12.60;99.90
47090;DHT22;32840;52.516;13.294;2023-05-20T02:59:37;12.70;99.90
47090;DHT22;32840;52.516;13.294;2023-05-20T03:02:22;12.60;99.90
47090;DHT22;32840;52.516;13.294;2023-05-20T03:05:08;12.60;99.90
47090;DHT22;32840;52.516;13.294;2023-05-20T03:07:54;12.60;99.90
47090;DHT22;32840;52.516;13.294;2023-05-20T03:10:39;12.60;99.90
47090;DHT22;32840;52.516;13.294;2023-05-20T03:13:24;12.60;99.90
47090;DHT22;32840;52.516;13.294;2023-05-20T03:16:09;12.60;99.90
47090;DHT22;32840;52.516;13.294;2023-05-20T03:18:56;12.70;99.90
47090;DHT22;32840;52.516;13.294;2023-05-20T03:21:41;12.70;99.90
47090;DHT22;32840;52.516;13.294;2023-05-20T03:24:27;12.70;99.90
47090;DHT22;32840;52.516;13.294;2023-05-20T03:27:12;12.70;99.90
47090;DHT22;32840;52.516;13.294;2023-05-20T03:29:57;12.70;99.90
47090;DHT22;32840;52.516;13.294;2023-05-20T03:32:42;12.80;99.90
47090;DHT22;32840;52.516;13.294;2023-05-20T03:35:27;12.70;99.90
47090;DHT22;32840;52.516;13.294;2023-05-20T03:38:11;12.70;99.90
47090;DHT22;32840;52.516;13.294;2023-05-20T03:40:56;12.70;99.90
47090;DHT22;32840;52.516;13.294;2023-05-20T03:43:41;12.60;99.90
47090;DHT22;32840;52.516;13.294;2023-05-20T03:46:26;12.70;99.90
47090;DHT22;32840;52.516;13.294;2023-05-20T03:49:11;12.70;99.90
47090;DHT22;32840;52.516;13.294;2023-05-20T03:51:56;12.80;99.90
47090;DHT22;32840;52.516;13.294;2023-05-20T03:54:41;12.70;99.90
47090;DHT22;32840;52.516;13.294;2023-05-20T03:57:26;12.70;99.90
47090;DHT22;32840;52.516;13.294;2023-05-20T04:00:13;12.70;99.90
47090;DHT22;32840;52.516;13.294;2023-05-20T04:02:58;12.70;99.90
47090;DHT22;32840;52.516;13.294;2023-05-20T04:05:43;12.70;99.90
47090;DHT22;32840;52.516;13.294;2023-05-20T04:08:28;12.80;99.90
47090;DHT22;32840;52.516;13.294;2023-05-20T04:11:13;12.80;99.90
47090;DHT22;32840;52.516;13.294;2023-05-20T04:13:58;12.80;99.90
47090;DHT22;32840;52.516;13.294;2023-05-20T04:16:44;12.90;99.90
47090;DHT22;32840;52.516;13.294;2023-05-20T04:19:29;12.90;99.90
47090;DHT22;32840;52.516;13.294;2023-05-20T04:22:14;12.90;99.90
47090;DHT22;32840;52.516;13.294;2023-05-20T04:24:59;12.80;99.90
47090;DHT22;32840;52.516;13.294;2023-05-20T04:27:44;12.80;99.90
47090;DHT22;32840;52.516;13.294;2023-05-20T04:30:29;12.80;99.90
47090;DHT22;32840;52.516;13.294;2023-05-20T04:33:17;12.80;99.90
47090;DHT22;32840;52.516;13.294;2023-05-20T04:36:02;12.80;99.90
47090;DHT22;32840;52.516;13.294;2023-05-20T04:38:49;12.80;99.90
47090;DHT22;32840;52.516;13.294;2023-05-20T04:41:34;12.80;99.90
47090;DHT22;32840;52.516;13.294;2023-05-20T04:44:20;12.90;99.90
47090;DHT22;32840;52.516;13.294;2023-05-20T04:47:04;12.90;99.90
47090;DHT22;32840;52.516;13.294;2023-05-20T04:49:51;12.80;99.90
47090;DHT22;32840;52.516;13.294;2023-05-20T04:52:40;12.80;99.90
47090;DHT22;32840;52.516;13.294;2023-05-20T04:55:29;12.80;99.90
47090;DHT22;32840;52.516;13.294;2023-05-20T04:58:14;12.90;99.90
47090;DHT22;32840;52.516;13.294;2023-05-20T05:01:00;13.00;99.90
47090;DHT22;32840;52.516;13.294;2023-05-20T05:03:46;13.00;99.90
47090;DHT22;32840;52.516;13.294;2023-05-20T05:06:31;13.00;99.90
47090;DHT22;32840;52.516;13.294;2023-05-20T05:09:16;13.00;99.90
47090;DHT22;32840;52.516;13.294;2023-05-20T05:12:01;13.00;99.90
47090;DHT22;32840;52.516;13.294;2023-05-20T05:14:46;12.90;99.90
47090;DHT22;32840;52.516;13.294;2023-05-20T05:17:31;12.90;99.90
47090;DHT22;32840;52.516;13.294;2023-05-20T05:20:16;12.90;99.90
47090;DHT22;32840;52.516;13.294;2023-05-20T05:23:00;12.90;99.90
47090;DHT22;32840;52.516;13.294;2023-05-20T05:25:50;12.80;99.90
47090;DHT22;32840;52.516;13.294;2023-05-20T05:28:35;12.80;99.90
47090;DHT22;32840;52.516;13.294;2023-05-20T05:31:20;12.80;99.90
47090;DHT22;32840;52.516;13.294;2023-05-20T05:34:05;12.70;99.90
47090;DHT22;32840;52.516;13.294;2023-05-20T05:36:50;12.60;99.90
47090;DHT22;32840;52.516;13.294;2023-05-20T05:39:35;12.70;99.90
47090;DHT22;32840;52.516;13.294;2023-05-20T05:42:21;12.80;99.90
47090;DHT22;32840;52.516;13.294;2023-05-20T05:45:06;12.90;99.90
47090;DHT22;32840;52.516;13.294;2023-05-20T05:47:51;12.90;99.90
47090;DHT22;32840;52.516;13.294;2023-05-20T05:50:36;13.00;99.90
47090;DHT22;32840;52.516;13.294;2023-05-20T05:53:21;13.00;99.90
47090;DHT22;32840;52.516;13.294;2023-05-20T05:56:08;13.10;99.90
47090;DHT22;32840;52.516;13.294;2023-05-20T05:58:54;13.20;99.90
47090;DHT22;32840;52.516;13.294;2023-05-20T06:01:38;13.20;99.90
47090;DHT22;32840;52.516;13.294;2023-05-20T06:04:23;13.20;99.90
47090;DHT22;32840;52.516;13.294;2023-05-20T06:07:08;13.20;99.90
47090;DHT22;32840;52.516;13.294;2023-05-20T06:09:53;13.30;99.90
47090;DHT22;32840;52.516;13.294;2023-05-20T06:12:38;13.30;99.90
47090;DHT22;32840;52.516;13.294;2023-05-20T06:15:22;13.40;99.90
47090;DHT22;32840;52.516;13.294;2023-05-20T06:18:07;13.30;99.90
47090;DHT22;32840;52.516;13.294;2023-05-20T06:20:56;13.30;99.90
47090;DHT22;32840;52.516;13.294;2023-05-20T06:23:42;13.30;99.90
47090;DHT22;32840;52.516;13.294;2023-05-20T06:26:26;13.20;99.90
47090;DHT22;32840;52.516;13.294;2023-05-20T06:29:11;13.10;99.90
47090;DHT22;32840;52.516;13.294;2023-05-20T06:31:57;13.00;99.90
47090;DHT22;32840;52.516;13.294;2023-05-20T06:34:41;13.10;99.90
47090;DHT22;32840;52.516;13.294;2023-05-20T06:37:26;13.10;99.90
47090;DHT22;32840;52.516;13.294;2023-05-20T06:40:11;13.20;99.90
47090;DHT22;32840;52.516;13.294;2023-05-20T06:42:56;13.20;99.90
47090;DHT22;32840;52.516;13.294;2023-05-20T06:45:42;13.20;99.90
47090;DHT22;32840;52.516;13.294;2023-05-20T06:48:27;13.30;99.90
47090;DHT22;32840;52.516;13.294;2023-05-20T06:51:12;13.40;99.90
47090;DHT22;32840;52.516;13.294;2023-05-20T06:53:57;13.50;99.90
47090;DHT22;32840;52.516;13.294;2023-05-20T06:56:42;13.60;99.90
47090;DHT22;32840;52.516;13.294;2023-05-20T06:59:27;13.50;99.90
47090;DHT22;32840;52.516;13.294;2023-05-20T07:02:12;13.50;99.90
47090;DHT22;32840;52.516;13.294;2023-05-20T07:04:57;13.50;99.90
47090;DHT22;32840;52.516;13.294;2023-05-20T07:07:42;13.50;99.90
47090;DHT22;32840;52.516;13.294;2023-05-20T07:10:28;13.60;99.90
47090;DHT22;32840;52.516;13.294;2023-05-20T07:13:13;13.80;99.90
47090;DHT22;32840;52.516;13.294;2023-05-20T07:15:58;13.90;99.90
47090;DHT22;32840;52.516;13.294;2023-05-20T07:18:43;14.00;99.90
47090;DHT22;32840;52.516;13.294;2023-05-20T07:21:27;14.00;99.90
47090;DHT22;32840;52.516;13.294;2023-05-20T07:24:12;14.00;99.90
47090;DHT22;32840;52.516;13.294;2023-05-20T07:26:57;14.00;99.90
47090;DHT22;32840;52.516;13.294;2023-05-20T07:29:42;14.00;99.90
47090;DHT22;32840;52.516;13.294;2023-05-20T07:32:27;14.10;99.90
47090;DHT22;32840;52.516;13.294;2023-05-20T07:35:12;14.20;99.90
47090;DHT22;32840;52.516;13.294;2023-05-20T07:37:57;14.30;99.90
47090;DHT22;32840;52.516;13.294;2023-05-20T07:40:42;14.40;99.90
47090;DHT22;32840;52.516;13.294;2023-05-20T07:43:27;14.50;99.90
47090;DHT22;32840;52.516;13.294;2023-05-20T07:46:12;14.60;99.90
47090;DHT22;32840;52.516;13.294;2023-05-20T07:48:57;14.70;99.90
47090;DHT22;32840;52.516;13.294;2023-05-20T07:51:42;14.70;99.90
47090;DHT22;32840;52.516;13.294;2023-05-20T07:54:27;14.70;99.90
47090;DHT22;32840;52.516;13.294;2023-05-20T07:57:12;14.70;99.90
47090;DHT22;32840;52.516;13.294;2023-05-20T07:59:57;14.70;99.90
47090;DHT22;32840;52.516;13.294;2023-05-20T08:02:42;14.80;99.90
47090;DHT22;32840;52.516;13.294;2023-05-20T08:05:27;14.90;99.90
47090;DHT22;32840;52.516;13.294;2023-05-20T08:08:11;15.00;99.90
47090;DHT22;32840;52.516;13.294;2023-05-20T08:10:56;15.10;99.90
47090;DHT22;32840;52.516;13.294;2023-05-20T08:13:41;15.30;99.90
47090;DHT22;32840;52.516;13.294;2023-05-20T08:16:26;15.40;99.90
47090;DHT22;32840;52.516;13.294;2023-05-20T08:19:11;15.40;99.90
47090;DHT22;32840;52.516;13.294;2023-05-20T08:21:56;15.30;99.90
47090;DHT22;32840;52.516;13.294;2023-05-20T08:24:41;15.30;99.90
47090;DHT22;32840;52.516;13.294;2023-05-20T08:27:26;15.40;99.90
47090;DHT22;32840;52.516;13.294;2023-05-20T08:30:11;15.50;99.90
47090;DHT22;32840;52.516;13.294;2023-05-20T08:32:56;15.50;99.90
47090;DHT22;32840;52.516;13.294;2023-05-20T08:35:41;15.60;99.90
47090;DHT22;32840;52.516;13.294;2023-05-20T08:38:26;15.70;99.90
47090;DHT22;32840;52.516;13.294;2023-05-20T08:41:10;15.70;99.90
47090;DHT22;32840;52.516;13.294;2023-05-20T08:43:56;15.90;99.90
47090;DHT22;32840;52.516;13.294;2023-05-20T08:46:42;16.00;99.90
47090;DHT22;32840;52.516;13.294;2023-05-20T08:49:27;16.10;99.90
47090;DHT22;32840;52.516;13.294;2023-05-20T08:52:12;16.20;99.90
47090;DHT22;32840;52.516;13.294;2023-05-20T08:54:58;16.20;99.90
47090;DHT22;32840;52.516;13.294;2023-05-20T08:57:43;16.30;99.90
47090;DHT22;32840;52.516;13.294;2023-05-20T09:00:29;16.40;99.90
47090;DHT22;32840;52.516;13.294;2023-05-20T09:03:16;16.60;99.90
47090;DHT22;32840;52.516;13.294;2023-05-20T09:06:05;16.60;99.90
47090;DHT22;32840;52.516;13.294;2023-05-20T09:08:51;16.50;99.90
47090;DHT22;32840;52.516;13.294;2023-05-20T09:11:36;16.40;99.90
47090;DHT22;32840;52.516;13.294;2023-05-20T09:14:22;16.30;99.90
47090;DHT22;32840;52.516;13.294;2023-05-20T09:17:10;16.30;99.90
47090;DHT22;32840;52.516;13.294;2023-05-20T09:19:55;16.20;99.90
47090;DHT22;32840;52.516;13.294;2023-05-20T09:22:40;16.10;99.90
47090;DHT22;32840;52.516;13.294;2023-05-20T09:25:26;16.10;99.90
47090;DHT22;32840;52.516;13.294;2023-05-20T09:28:10;16.10;99.90
47090;DHT22;32840;52.516;13.294;2023-05-20T09:30:57;16.10;99.90
47090;DHT22;32840;52.516;13.294;2023-05-20T09:33:42;16.20;99.90
47090;DHT22;32840;52.516;13.294;2023-05-20T09:36:28;16.30;99.90
47090;DHT22;32840;52.516;13.294;2023-05-20T09:39:15;16.30;99.90
47090;DHT22;32840;52.516;13.294;2023-05-20T09:42:04;16.50;99.90
47090;DHT22;32840;52.516;13.294;2023-05-20T09:44:50;16.60;99.90
47090;DHT22;32840;52.516;13.294;2023-05-20T09:47:37;16.50;99.90
47090;DHT22;32840;52.516;13.294;2023-05-20T09:50:23;16.40;99.90
47090;DHT22;32840;52.516;13.294;2023-05-20T09:53:08;16.50;99.90
47090;DHT22;32840;52.516;13.294;2023-05-20T09:55:55;16.60;99.90
47090;DHT22;32840;52.516;13.294;2023-05-20T09:58:41;16.60;99.90
47090;DHT22;32840;52.516;13.294;2023-05-20T10:01:27;16.60;99.90
47090;DHT22;32840;52.516;13.294;2023-05-20T10:04:15;16.70;99.90
47090;DHT22;32840;52.516;13.294;2023-05-20T10:07:34;16.60;99.90
47090;DHT22;32840;52.516;13.294;2023-05-20T10:10:20;16.50;99.90
47090;DHT22;32840;52.516;13.294;2023-05-20T10:13:29;16.60;99.90
47090;DHT22;32840;52.516;13.294;2023-05-20T10:16:43;16.50;99.90
47090;DHT22;32840;52.516;13.294;2023-05-20T10:19:31;16.50;99.90
47090;DHT22;32840;52.516;13.294;2023-05-20T10:22:26;16.50;99.90
47090;DHT22;32840;52.516;13.294;2023-05-20T10:25:23;16.50;99.90
47090;DHT22;32840;52.516;13.294;2023-05-20T10:28:11;16.40;99.90
47090;DHT22;32840;52.516;13.294;2023-05-20T10:30:59;16.50;99.90
47090;DHT22;32840;52.516;13.294;2023-05-20T10:33:45;16.60;99.90
47090;DHT22;32840;52.516;13.294;2023-05-20T10:36:31;16.70;99.90
47090;DHT22;32840;52.516;13.294;2023-05-20T10:39:17;16.80;99.90
47090;DHT22;32840;52.516;13.294;2023-05-20T10:42:09;16.80;99.90
47090;DHT22;32840;52.516;13.294;2023-05-20T10:44:54;16.80;99.90
47090;DHT22;32840;52.516;13.294;2023-05-20T10:47:53;16.80;99.90
47090;DHT22;32840;52.516;13.294;2023-05-20T10:50:40;17.10;99.90
47090;DHT22;32840;52.516;13.294;2023-05-20T10:53:26;17.30;99.90
47090;DHT22;32840;52.516;13.294;2023-05-20T10:56:19;17.20;99.90
47090;DHT22;32840;52.516;13.294;2023-05-20T10:59:04;17.30;99.90
47090;DHT22;32840;52.516;13.294;2023-05-20T11:01:50;17.50;99.90
47090;DHT22;32840;52.516;13.294;2023-05-20T11:04:35;17.80;99.90
47090;DHT22;32840;52.516;13.294;2023-05-20T11:07:30;17.70;99.90
47090;DHT22;32840;52.516;13.294;2023-05-20T11:10:15;17.60;99.90
47090;DHT22;32840;52.516;13.294;2023-05-20T11:13:01;17.50;99.90
47090;DHT22;32840;52.516;13.294;2023-05-20T11:15:48;17.60;99.90
47090;DHT22;32840;52.516;13.294;2023-05-20T11:18:33;17.70;99.90
47090;DHT22;32840;52.516;13.294;2023-05-20T11:21:18;17.80;99.90
47090;DHT22;32840;52.516;13.294;2023-05-20T11:24:03;18.00;99.90
47090;DHT22;32840;52.516;13.294;2023-05-20T11:26:48;18.20;99.90
47090;DHT22;32840;52.516;13.294;2023-05-20T11:29:33;18.40;99.90
47090;DHT22;32840;52.516;13.294;2023-05-20T11:32:19;18.50;99.90
47090;DHT22;32840;52.516;13.294;2023-05-20T11:35:04;18.70;99.90
47090;DHT22;32840;52.516;13.294;2023-05-20T11:37:55;18.70;99.90
47090;DHT22;32840;52.516;13.294;2023-05-20T11:40:59;18.70;99.90
47090;DHT22;32840;52.516;13.294;2023-05-20T11:43:44;18.80;99.90
47090;DHT22;32840;52.516;13.294;2023-05-20T11:46:29;18.80;99.90
47090;DHT22;32840;52.516;13.294;2023-05-20T11:49:15;18.40;99.90
47090;DHT22;32840;52.516;13.294;2023-05-20T11:52:02;18.20;99.90
47090;DHT22;32840;52.516;13.294;2023-05-20T11:54:51;18.10;99.90
47090;DHT22;32840;52.516;13.294;2023-05-20T11:57:37;18.00;99.90
47090;DHT22;32840;52.516;13.294;2023-05-20T12:00:23;18.30;99.90
47090;DHT22;32840;52.516;13.294;2023-05-20T12:03:07;18.40;99.90
47090;DHT22;32840;52.516;13.294;2023-05-20T12:05:54;18.40;99.90
47090;DHT22;32840;52.516;13.294;2023-05-20T12:08:39;18.50;99.90
47090;DHT22;32840;52.516;13.294;2023-05-20T12:11:23;18.60;99.90
47090;DHT22;32840;52.516;13.294;2023-05-20T12:14:09;18.50;99.90
47090;DHT22;32840;52.516;13.294;2023-05-20T12:16:53;18.40;99.90
47090;DHT22;32840;52.516;13.294;2023-05-20T12:19:38;18.30;99.90
47090;DHT22;32840;52.516;13.294;2023-05-20T12:22:23;18.20;99.90
47090;DHT22;32840;52.516;13.294;2023-05-20T12:25:10;18.20;99.90
47090;DHT22;32840;52.516;13.294;2023-05-20T12:27:55;18.20;99.90
47090;DHT22;32840;52.516;13.294;2023-05-20T12:30:40;18.20;99.90
47090;DHT22;32840;52.516;13.294;2023-05-20T12:33:25;18.10;99.90
47090;DHT22;32840;52.516;13.294;2023-05-20T12:36:11;18.20;99.90
47090;DHT22;32840;52.516;13.294;2023-05-20T12:38:56;18.20;99.90
47090;DHT22;32840;52.516;13.294;2023-05-20T12:41:41;18.20;99.90
47090;DHT22;32840;52.516;13.294;2023-05-20T12:44:26;18.20;99.90
47090;DHT22;32840;52.516;13.294;2023-05-20T12:47:11;18.30;99.90
47090;DHT22;32840;52.516;13.294;2023-05-20T12:49:56;18.30;99.90
47090;DHT22;32840;52.516;13.294;2023-05-20T12:52:41;18.30;99.90
47090;DHT22;32840;52.516;13.294;2023-05-20T12:55:26;18.10;99.90
47090;DHT22;32840;52.516;13.294;2023-05-20T12:58:11;18.00;99.90
47090;DHT22;32840;52.516;13.294;2023-05-20T13:00:55;18.10;99.90
47090;DHT22;32840;52.516;13.294;2023-05-20T13:03:40;18.30;99.90
47090;DHT22;32840;52.516;13.294;2023-05-20T13:06:26;18.40;99.90
47090;DHT22;32840;52.516;13.294;2023-05-20T13:09:11;18.30;99.90
47090;DHT22;32840;52.516;13.294;2023-05-20T13:11:56;18.40;99.90
47090;DHT22;32840;52.516;13.294;2023-05-20T13:14:40;18.40;99.90
47090;DHT22;32840;52.516;13.294;2023-05-20T13:17:26;18.50;99.90
47090;DHT22;32840;52.516;13.294;2023-05-20T13:20:11;18.50;99.90
47090;DHT22;32840;52.516;13.294;2023-05-20T13:22:56;18.50;99.90
47090;DHT22;32840;52.516;13.294;2023-05-20T13:25:41;18.50;99.90
47090;DHT22;32840;52.516;13.294;2023-05-20T13:28:26;18.50;99.90
47090;DHT22;32840;52.516;13.294;2023-05-20T13:31:11;18.60;99.90
47090;DHT22;32840;52.516;13.294;2023-05-20T13:33:56;18.60;99.90
47090;DHT22;32840;52.516;13.294;2023-05-20T13:36:44;18.70;99.90
47090;DHT22;32840;52.516;13.294;2023-05-20T13:39:29;18.70;99.90
47090;DHT22;32840;52.516;13.294;2023-05-20T13:42:14;18.70;99.90
47090;DHT22;32840;52.516;13.294;2023-05-20T13:44:59;18.70;99.90
47090;DHT22;32840;52.516;13.294;2023-05-20T13:47:43;18.80;99.90
47090;DHT22;32840;52.516;13.294;2023-05-20T13:50:28;18.80;99.90
47090;DHT22;32840;52.516;13.294;2023-05-20T13:53:13;18.90;99.90
47090;DHT22;32840;52.516;13.294;2023-05-20T13:55:58;18.90;99.90
47090;DHT22;32840;52.516;13.294;2023-05-20T13:58:43;19.00;99.90
47090;DHT22;32840;52.516;13.294;2023-05-20T14:01:29;19.00;99.90
47090;DHT22;32840;52.516;13.294;2023-05-20T14:04:16;19.00;99.90
47090;DHT22;32840;52.516;13.294;2023-05-20T14:07:01;18.90;99.90
47090;DHT22;32840;52.516;13.294;2023-05-20T14:09:47;18.90;99.90
47090;DHT22;32840;52.516;13.294;2023-05-20T14:12:32;19.00;99.90
47090;DHT22;32840;52.516;13.294;2023-05-20T14:15:16;19.00;99.90
47090;DHT22;32840;52.516;13.294;2023-05-20T14:18:01;19.00;99.90
47090;DHT22;32840;52.516;13.294;2023-05-20T14:20:47;19.00;99.90
47090;DHT22;32840;52.516;13.294;2023-05-20T14:23:32;19.00;99.90
47090;DHT22;32840;52.516;13.294;2023-05-20T14:26:16;19.00;99.90
47090;DHT22;32840;52.516;13.294;2023-05-20T14:29:02;19.00;99.90
47090;DHT22;32840;52.516;13.294;2023-05-20T14:31:46;19.00;99.90
47090;DHT22;32840;52.516;13.294;2023-05-20T14:34:31;18.90;99.90
47090;DHT22;32840;52.516;13.294;2023-05-20T14:37:16;19.00;99.90
47090;DHT22;32840;52.516;13.294;2023-05-20T14:40:03;19.00;99.90
47090;DHT22;32840;52.516;13.294;2023-05-20T14:42:49;19.00;99.90
47090;DHT22;32840;52.516;13.294;2023-05-20T14:45:33;19.10;99.90
47090;DHT22;32840;52.516;13.294;2023-05-20T14:48:18;19.10;99.90
47090;DHT22;32840;52.516;13.294;2023-05-20T14:51:04;19.10;99.90
47090;DHT22;32840;52.516;13.294;2023-05-20T14:53:49;19.00;99.90
47090;DHT22;32840;52.516;13.294;2023-05-20T14:56:33;19.00;99.90
47090;DHT22;32840;52.516;13.294;2023-05-20T14:59:18;19.00;99.90
47090;DHT22;32840;52.516;13.294;2023-05-20T15:02:03;19.10;99.90
47090;DHT22;32840;52.516;13.294;2023-05-20T15:04:51;19.10;99.90
47090;DHT22;32840;52.516;13.294;2023-05-20T15:07:36;19.20;99.90
47090;DHT22;32840;52.516;13.294;2023-05-20T15:10:21;19.20;99.90
47090;DHT22;32840;52.516;13.294;2023-05-20T15:13:06;19.20;99.90
47090;DHT22;32840;52.516;13.294;2023-05-20T15:15:51;19.30;99.90
47090;DHT22;32840;52.516;13.294;2023-05-20T15:18:36;19.20;99.90
47090;DHT22;32840;52.516;13.294;2023-05-20T15:21:21;19.30;99.90
47090;DHT22;32840;52.516;13.294;2023-05-20T15:24:06;19.30;99.90
47090;DHT22;32840;52.516;13.294;2023-05-20T15:26:51;19.30;99.90
47090;DHT22;32840;52.516;13.294;2023-05-20T15:29:36;19.30;99.90
47090;DHT22;32840;52.516;13.294;2023-05-20T15:32:21;19.30;99.90
47090;DHT22;32840;52.516;13.294;2023-05-20T15:35:07;19.20;99.90
47090;DHT22;32840;52.516;13.294;2023-05-20T15:37:52;19.30;99.90
47090;DHT22;32840;52.516;13.294;2023-05-20T15:40:37;19.40;99.90
47090;DHT22;32840;52.516;13.294;2023-05-20T15:43:21;19.40;99.90
47090;DHT22;32840;52.516;13.294;2023-05-20T15:46:06;19.40;99.90
47090;DHT22;32840;52.516;13.294;2023-05-20T15:48:52;19.30;99.90
47090;DHT22;32840;52.516;13.294;2023-05-20T15:51:39;19.30;99.90
47090;DHT22;32840;52.516;13.294;2023-05-20T15:54:24;19.40;99.90
47090;DHT22;32840;52.516;13.294;2023-05-20T15:57:09;19.40;99.90
47090;DHT22;32840;52.516;13.294;2023-05-20T15:59:53;19.40;99.90
47090;DHT22;32840;52.516;13.294;2023-05-20T16:02:39;19.30;99.90
47090;DHT22;32840;52.516;13.294;2023-05-20T16:05:24;19.30;99.90
47090;DHT22;32840;52.516;13.294;2023-05-20T16:08:09;19.30;99.90
47090;DHT22;32840;52.516;13.294;2023-05-20T16:10:54;19.30;99.90
47090;DHT22;32840;52.516;13.294;2023-05-20T16:13:39;19.20;99.90
47090;DHT22;32840;52.516;13.294;2023-05-20T16:16:25;19.10;99.90
47090;DHT22;32840;52.516;13.294;2023-05-20T16:19:09;19.10;99.90
47090;DHT22;32840;52.516;13.294;2023-05-20T16:21:54;19.10;99.90
47090;DHT22;32840;52.516;13.294;2023-05-20T16:24:39;19.10;99.90
47090;DHT22;32840;52.516;13.294;2023-05-20T16:27:24;19.10;99.90
47090;DHT22;32840;52.516;13.294;2023-05-20T16:30:09;19.20;99.90
47090;DHT22;32840;52.516;13.294;2023-05-20T16:32:55;19.30;99.90
47090;DHT22;32840;52.516;13.294;2023-05-20T16:35:40;19.30;99.90
47090;DHT22;32840;52.516;13.294;2023-05-20T16:38:25;19.30;99.90
47090;DHT22;32840;52.516;13.294;2023-05-20T16:41:10;19.30;99.90
47090;DHT22;32840;52.516;13.294;2023-05-20T16:43:55;19.20;99.90
47090;DHT22;32840;52.516;13.294;2023-05-20T16:46:40;19.20;99.90
47090;DHT22;32840;52.516;13.294;2023-05-20T16:49:25;19.20;99.90
47090;DHT22;32840;52.516;13.294;2023-05-20T16:52:09;19.10;99.90
47090;DHT22;32840;52.516;13.294;2023-05-20T16:54:55;19.10;99.90
47090;DHT22;32840;52.516;13.294;2023-05-20T16:57:42;19.10;99.90
47090;DHT22;32840;52.516;13.294;2023-05-20T17:00:27;19.10;99.90
47090;DHT22;32840;52.516;13.294;2023-05-20T17:03:12;19.00;99.90
47090;DHT22;32840;52.516;13.294;2023-05-20T17:05:57;19.00;99.90
47090;DHT22;32840;52.516;13.294;2023-05-20T17:08:42;19.00;99.90